createdAt,value
2022-11-05T00:01:32.086Z,99238.89
2022-11-05T00:07:00.956Z,99246.81
2022-11-05T00:12:29.454Z,99247.92
2022-11-05T00:17:37.251Z,99272.56
2022-11-05T00:23:01.786Z,99283.39
2022-11-05T00:28:09.776Z,99295.77
2022-11-05T00:33:17.475Z,99299.71
2022-11-05T00:38:25.037Z,99282.42
2022-11-05T00:43:51.069Z,99277.41
2022-11-05T00:49:16.312Z,99274.33
2022-11-05T00:54:24.003Z,99268.09
2022-11-05T00:59:31.622Z,99254.48
2022-11-05T01:04:39.398Z,99242.53
2022-11-05T01:09:47.079Z,99237.14
2022-11-05T01:14:55.092Z,99242.71
2022-11-05T01:20:02.508Z,99250.90
2022-11-05T01:25:12.177Z,99249.61
2022-11-05T01:30:20.158Z,99250.97
2022-11-05T01:35:27.474Z,99249.65
2022-11-05T01:40:35.293Z,99239.61
2022-11-05T01:45:43.872Z,99236.60
2022-11-05T01:50:56.121Z,99228.02
2022-11-05T01:56:04.427Z,99224.90
2022-11-05T02:01:12.439Z,99223.59
2022-11-05T02:06:21.476Z,99211.95
2022-11-05T02:11:29.040Z,99213.15
2022-11-05T02:16:43.574Z,99211.66
2022-11-05T02:22:25.160Z,99214.05
2022-11-05T02:28:06.443Z,99211.16
2022-11-05T02:33:30.158Z,99214.48
2022-11-05T02:38:44.948Z,99210.29
2022-11-05T02:44:04.891Z,99219.09
2022-11-05T02:49:29.076Z,99222.47
2022-11-05T02:54:41.700Z,99228.97
2022-11-05T02:59:49.317Z,99230.39
2022-11-05T03:04:57.002Z,99226.33
2022-11-05T03:10:41.711Z,99225.09
2022-11-05T03:15:59.687Z,99208.77
2022-11-05T03:21:12.846Z,99200.70
2022-11-05T03:26:28.084Z,99210.46
2022-11-05T03:31:37.591Z,99214.20
2022-11-05T03:36:49.045Z,99231.52
2022-11-05T03:41:58.817Z,99230.66
2022-11-05T03:47:11.002Z,99237.11
2022-11-05T03:52:21.346Z,99231.86
2022-11-05T03:57:32.041Z,99242.21
2022-11-05T04:02:41.215Z,99247.08
2022-11-05T04:08:11.366Z,99245.69
2022-11-05T04:13:28.244Z,99257.55
2022-11-05T04:18:37.044Z,99265.60
2022-11-05T04:24:02.633Z,99260.96
2022-11-05T04:29:28.181Z,99273.12
2022-11-05T04:34:36.003Z,99279.41
2022-11-05T04:39:43.677Z,99279.23
2022-11-05T04:44:51.028Z,99266.55
2022-11-05T04:49:58.923Z,99265.95
2022-11-05T04:55:07.549Z,99259.06
2022-11-05T05:00:15.748Z,99265.39
2022-11-05T05:05:23.559Z,99272.46
2022-11-05T05:10:31.147Z,99279.63
2022-11-05T05:15:39.068Z,99279.52
2022-11-05T05:21:03.538Z,99244.59
2022-11-05T05:26:11.302Z,99269.98
2022-11-05T05:31:18.608Z,99280.63
2022-11-05T05:36:26.749Z,99293.92
2022-11-05T05:41:34.262Z,99320.92
2022-11-05T05:46:41.576Z,99330.82
2022-11-05T05:51:49.879Z,99324.94
2022-11-05T05:56:58.410Z,99325.78
2022-11-05T06:02:06.278Z,99319.16
2022-11-05T06:07:13.662Z,99334.49
2022-11-05T06:12:21.041Z,99345.58
2022-11-05T06:17:28.958Z,99341.91
2022-11-05T06:22:36.369Z,99331.23
2022-11-05T06:27:44.040Z,99329.14
2022-11-05T06:32:51.630Z,99341.27
2022-11-05T06:38:03.186Z,99345.80
2022-11-05T06:43:10.816Z,99356.52
2022-11-05T06:48:41.166Z,99370.90
2022-11-05T06:53:48.770Z,99368.98
2022-11-05T06:58:56.585Z,99365.58
2022-11-05T07:04:04.078Z,99360.73
2022-11-05T07:09:11.326Z,99372.33
2022-11-05T07:14:18.773Z,99387.11
2022-11-05T07:19:26.203Z,99389.67
2022-11-05T07:24:33.819Z,99394.88
2022-11-05T07:29:41.306Z,99397.13
2022-11-05T07:34:48.487Z,99389.08
2022-11-05T07:39:55.885Z,99392.12
2022-11-05T07:45:03.480Z,99397.48
2022-11-05T07:50:12.135Z,99403.16
2022-11-05T07:55:20.707Z,99394.72
2022-11-05T08:00:29.908Z,99388.12
2022-11-05T08:05:39.047Z,99401.06
2022-11-05T08:10:46.588Z,99398.64
2022-11-05T08:15:54.249Z,99405.48
2022-11-05T08:21:03.043Z,99410.21
2022-11-05T08:26:11.720Z,99421.07
2022-11-05T08:31:19.586Z,99420.59
2022-11-05T08:36:27.282Z,99434.04
2022-11-05T08:41:34.749Z,99446.26
2022-11-05T08:46:42.281Z,99457.58
2022-11-05T08:51:49.909Z,99460.66
2022-11-05T08:56:58.524Z,99464.08
2022-11-05T09:02:06.610Z,99456.48
2022-11-05T09:07:14.460Z,99455.80
2022-11-05T09:12:22.354Z,99455.52
2022-11-05T09:17:29.954Z,99458.63
2022-11-05T09:22:42.172Z,99464.66
2022-11-05T09:27:51.186Z,99469.54
2022-11-05T09:32:58.730Z,99472.79
2022-11-05T09:38:06.518Z,99478.06
2022-11-05T09:43:20.717Z,99482.00
2022-11-05T09:48:32.713Z,99492.05
2022-11-05T09:53:42.839Z,99497.42
2022-11-05T09:58:54.079Z,99503.33
2022-11-05T10:04:11.594Z,99505.08
2022-11-05T10:09:27.128Z,99515.84
2022-11-05T10:14:39.961Z,99525.59
2022-11-05T10:19:50.266Z,99527.65
2022-11-05T10:24:58.801Z,99520.09
2022-11-05T10:30:07.186Z,99524.79
2022-11-05T10:35:19.115Z,99531.70
2022-11-05T10:40:40.126Z,99529.23
2022-11-05T10:45:57.849Z,99533.54
2022-11-05T10:51:06.755Z,99541.70
2022-11-05T10:56:35.074Z,99543.31
2022-11-05T11:01:42.901Z,99555.59
2022-11-05T11:06:55.481Z,99561.30
2022-11-05T11:12:07.235Z,99572.25
2022-11-05T11:17:31.091Z,99573.48
2022-11-05T11:22:38.746Z,99585.57
2022-11-05T11:27:46.793Z,99590.54
2022-11-05T11:32:54.318Z,99593.39
2022-11-05T11:38:02.580Z,99602.75
2022-11-05T11:43:29.031Z,99602.84
2022-11-05T11:48:38.627Z,99594.93
2022-11-05T11:53:46.522Z,99599.63
2022-11-05T11:58:55.548Z,99605.13
2022-11-05T12:04:12.720Z,99602.29
2022-11-05T12:09:30.867Z,99599.27
2022-11-05T12:14:47.819Z,99602.23
2022-11-05T12:20:17.116Z,99604.96
2022-11-05T12:25:31.051Z,99604.21
2022-11-05T12:30:50.060Z,99602.42
2022-11-05T12:36:16.147Z,99611.48
2022-11-05T12:41:31.059Z,99613.58
2022-11-05T12:46:46.075Z,99619.77
2022-11-05T12:52:09.551Z,99624.48
2022-11-05T12:57:18.452Z,99613.41
2022-11-05T13:02:32.123Z,99609.83
2022-11-05T13:07:45.660Z,99619.43
2022-11-05T13:13:01.160Z,99629.73
2022-11-05T13:18:13.329Z,99648.43
2022-11-05T13:23:31.480Z,99643.13
2022-11-05T13:28:47.797Z,99663.59
2022-11-05T13:33:56.627Z,99659.55
2022-11-05T13:39:13.654Z,99645.84
2022-11-05T13:44:42.723Z,99654.73
2022-11-05T13:50:24.703Z,99651.52
2022-11-05T13:55:58.687Z,99657.09
2022-11-05T14:01:17.784Z,99682.02
2022-11-05T14:06:32.268Z,99694.55
2022-11-05T14:11:43.023Z,99699.92
2022-11-05T14:16:56.494Z,99702.89
2022-11-05T14:22:24.581Z,99717.59
2022-11-05T14:27:46.215Z,99725.63
2022-11-05T14:33:05.214Z,99720.60
2022-11-05T14:38:23.642Z,99730.67
2022-11-05T14:43:34.444Z,99735.73
2022-11-05T14:48:45.167Z,99743.95
2022-11-05T14:54:00.758Z,99743.38
2022-11-05T14:59:41.982Z,99744.41
2022-11-05T15:04:51.302Z,99740.58
2022-11-05T15:10:09.897Z,99740.20
2022-11-05T15:15:25.399Z,99738.96
2022-11-05T15:20:40.407Z,99742.48
2022-11-05T15:26:05.394Z,99739.52
2022-11-05T15:31:28.674Z,99742.99
2022-11-05T15:36:36.535Z,99744.20
2022-11-05T15:41:44.871Z,99756.12
2022-11-05T15:47:06.643Z,99763.50
2022-11-05T15:52:17.613Z,99762.58
2022-11-05T15:57:29.520Z,99759.76
2022-11-05T16:02:40.933Z,99766.92
2022-11-05T16:07:50.165Z,99768.13
2022-11-05T16:12:59.041Z,99773.71
2022-11-05T16:18:20.373Z,99775.14
2022-11-05T16:23:42.043Z,99780.73
2022-11-05T16:28:54.159Z,99791.76
2022-11-05T16:34:02.439Z,99801.74
2022-11-05T16:39:12.257Z,99807.31
2022-11-05T16:44:20.077Z,99812.61
2022-11-05T16:49:27.969Z,99818.33
2022-11-05T16:54:36.361Z,99818.36
2022-11-05T16:59:44.940Z,99825.69
2022-11-05T17:04:52.967Z,99828.13
2022-11-05T17:10:00.885Z,99832.86
2022-11-05T17:15:19.246Z,99835.84
2022-11-05T17:20:39.489Z,99838.45
2022-11-05T17:25:50.334Z,99845.10
2022-11-05T17:31:00.435Z,99850.61
2022-11-05T17:36:13.680Z,99855.61
2022-11-05T17:41:23.596Z,99858.11
2022-11-05T17:46:31.512Z,99862.66
2022-11-05T17:51:39.491Z,99875.27
2022-11-05T17:56:47.331Z,99884.56
2022-11-05T18:01:55.224Z,99884.45
2022-11-05T18:07:03.842Z,99898.24
2022-11-05T18:12:12.113Z,99900.83
2022-11-05T18:17:20.361Z,99904.35
2022-11-05T18:22:28.614Z,99908.36
2022-11-05T18:27:36.994Z,99905.25
2022-11-05T18:32:45.005Z,99910.95
2022-11-05T18:37:53.038Z,99916.75
2022-11-05T18:43:00.840Z,99920.57
2022-11-05T18:48:09.168Z,99918.64
2022-11-05T18:53:17.351Z,99926.99
2022-11-05T18:58:25.363Z,99931.50
2022-11-05T19:03:33.914Z,99936.38
2022-11-05T19:08:42.035Z,99938.61
2022-11-05T19:13:50.964Z,99944.02
2022-11-05T19:19:02.358Z,99945.39
2022-11-05T19:24:16.725Z,99944.48
2022-11-05T19:29:25.355Z,99944.58
2022-11-05T19:34:33.503Z,99949.58
2022-11-05T19:39:42.166Z,99950.39
2022-11-05T19:44:50.002Z,99958.39
2022-11-05T19:49:58.010Z,99966.56
2022-11-05T19:55:11.854Z,99967.38
2022-11-05T20:00:21.243Z,99967.45
2022-11-05T20:05:29.093Z,99970.71
2022-11-05T20:10:40.518Z,99974.09
2022-11-05T20:15:48.319Z,99982.20
2022-11-05T20:21:07.667Z,99980.41
2022-11-05T20:26:16.490Z,99978.31
2022-11-05T20:31:25.250Z,99986.23
2022-11-05T20:36:33.465Z,99985.09
2022-11-05T20:41:41.299Z,99982.30
2022-11-05T20:46:49.041Z,99984.48
2022-11-05T20:51:56.990Z,99980.94
2022-11-05T20:57:05.194Z,99979.85
2022-11-05T21:02:13.967Z,99980.90
2022-11-05T21:07:22.084Z,99983.82
2022-11-05T21:12:29.905Z,99986.61
2022-11-05T21:17:38.032Z,99987.63
2022-11-05T21:22:46.228Z,99990.52
2022-11-05T21:27:53.875Z,99999.39
2022-11-05T21:33:02.194Z,100001.02
2022-11-05T21:38:10.188Z,100004.13
2022-11-05T21:43:18.926Z,100003.59
2022-11-05T21:48:26.877Z,100005.98
2022-11-05T21:53:48.749Z,100005.76
2022-11-05T21:59:14.276Z,100007.36
2022-11-05T22:04:22.597Z,100004.38
2022-11-05T22:09:31.163Z,100004.79
2022-11-05T22:14:39.392Z,100000.08
2022-11-05T22:19:47.350Z,100001.09
2022-11-05T22:24:54.997Z,100007.80
2022-11-05T22:30:02.723Z,100011.66
2022-11-05T22:35:11.967Z,100012.55
2022-11-05T22:40:23.707Z,100021.49
2022-11-05T22:45:32.228Z,100026.73
2022-11-05T22:50:40.391Z,100026.73
2022-11-05T22:55:48.444Z,100030.23
2022-11-05T23:00:56.320Z,100036.05
2022-11-05T23:06:06.309Z,100037.42
2022-11-05T23:11:39.115Z,100036.06
2022-11-05T23:17:04.582Z,100028.78
2022-11-05T23:22:33.593Z,100034.17
2022-11-05T23:27:43.152Z,100037.70
2022-11-05T23:32:51.902Z,100036.38
2022-11-05T23:38:17.308Z,100043.05
2022-11-05T23:43:42.740Z,100053.45
2022-11-05T23:48:50.870Z,100054.09
2022-11-05T23:53:58.988Z,100053.52
2022-11-05T23:59:06.707Z,100055.42
